createdAt,value
2023-08-02T00:01:05.682Z,99675.63
2023-08-02T00:03:32.244Z,99671.47
2023-08-02T00:06:00.219Z,99668.97
2023-08-02T00:08:27.242Z,99670.06
2023-08-02T00:10:53.829Z,99661.72
2023-08-02T00:13:20.529Z,99656.16
2023-08-02T00:15:47.230Z,99647.28
2023-08-02T00:18:14.251Z,99643.94
2023-08-02T00:20:40.995Z,99649.50
2023-08-02T00:23:07.612Z,99647.84
2023-08-02T00:25:34.302Z,99655.63
2023-08-02T00:28:00.903Z,99647.28
2023-08-02T00:30:27.575Z,99661.78
2023-08-02T00:32:54.222Z,99652.06
2023-08-02T00:35:20.860Z,99654.00
2023-08-02T00:37:47.517Z,99656.78
2023-08-02T00:40:14.345Z,99655.13
2023-08-02T00:42:40.974Z,99659.03
2023-08-02T00:45:07.947Z,99659.03
2023-08-02T00:47:35.387Z,99664.03
2023-08-02T00:50:03.463Z,99662.88
2023-08-02T00:52:29.972Z,99654.53
2023-08-02T00:54:56.532Z,99652.31
2023-08-02T00:57:23.047Z,99636.44
2023-08-02T00:59:49.589Z,99629.47
2023-08-02T01:02:16.212Z,99629.75
2023-08-02T01:04:42.983Z,99632.25
2023-08-02T01:07:22.198Z,99636.41
2023-08-02T01:09:59.174Z,99634.44
2023-08-02T01:12:26.370Z,99631.09
2023-08-02T01:14:56.737Z,99619.97
2023-08-02T01:17:28.941Z,99614.72
2023-08-02T01:20:01.188Z,99621.94
2023-08-02T01:22:27.716Z,99616.38
2023-08-02T01:24:54.244Z,99608.56
2023-08-02T01:27:24.951Z,99595.16
2023-08-02T01:29:53.196Z,99596.84
2023-08-02T01:32:22.713Z,99594.31
2023-08-02T01:34:51.810Z,99597.91
2023-08-02T01:37:18.468Z,99594.31
2023-08-02T01:39:44.970Z,99593.19
2023-08-02T01:42:12.507Z,99587.63
2023-08-02T01:44:38.999Z,99580.94
2023-08-02T01:47:05.576Z,99568.66
2023-08-02T01:49:32.053Z,99564.75
2023-08-02T01:51:58.610Z,99566.94
2023-08-02T01:54:25.101Z,99564.72
2023-08-02T01:56:51.672Z,99557.19
2023-08-02T01:59:18.247Z,99551.03
2023-08-02T02:01:44.862Z,99563.00
2023-08-02T02:04:11.386Z,99554.09
2023-08-02T02:06:37.982Z,99551.88
2023-08-02T02:09:04.577Z,99546.59
2023-08-02T02:11:31.132Z,99542.44
2023-08-02T02:13:57.690Z,99543.84
2023-08-02T02:16:24.240Z,99533.03
2023-08-02T02:18:50.861Z,99525.78
2023-08-02T02:21:17.588Z,99529.41
2023-08-02T02:23:44.227Z,99521.88
2023-08-02T02:26:10.866Z,99519.34
2023-08-02T02:28:37.396Z,99510.16
2023-08-02T02:31:03.964Z,99499.84
2023-08-02T02:33:30.494Z,99493.44
2023-08-02T02:35:57.019Z,99468.41
2023-08-02T02:38:23.547Z,99472.84
2023-08-02T02:40:50.044Z,99481.47
2023-08-02T02:43:16.531Z,99476.75
2023-08-02T02:45:43.077Z,99475.91
2023-08-02T02:48:09.622Z,99471.19
2023-08-02T02:50:36.180Z,99469.22
2023-08-02T02:53:02.689Z,99472.28
2023-08-02T02:55:29.224Z,99461.47
2023-08-02T02:57:55.819Z,99453.63
2023-08-02T03:00:22.376Z,99444.53
2023-08-02T03:02:49.084Z,99448.44
2023-08-02T03:05:15.765Z,99441.75
2023-08-02T03:07:42.304Z,99429.19
2023-08-02T03:10:09.250Z,99415.50
2023-08-02T03:12:35.788Z,99402.13
2023-08-02T03:15:02.264Z,99398.19
2023-08-02T03:17:29.047Z,99399.56
2023-08-02T03:19:55.645Z,99400.94
2023-08-02T03:22:22.136Z,99390.91
2023-08-02T03:24:48.649Z,99393.47
2023-08-02T03:27:15.134Z,99394.56
2023-08-02T03:29:41.649Z,99387.66
2023-08-02T03:32:08.604Z,99369.28
2023-08-02T03:34:35.222Z,99353.78
2023-08-02T03:37:01.766Z,99350.50
2023-08-02T03:39:28.675Z,99336.56
2023-08-02T03:41:56.123Z,99351.59
2023-08-02T03:44:22.917Z,99361.91
2023-08-02T03:46:49.759Z,99371.59
2023-08-02T03:49:16.512Z,99375.22
2023-08-02T03:51:43.119Z,99388.03
2023-08-02T03:54:09.700Z,99394.13
2023-08-02T03:56:36.362Z,99375.69
2023-08-02T03:59:02.903Z,99367.28
2023-08-02T04:01:29.459Z,99364.19
2023-08-02T04:03:56.033Z,99363.63
2023-08-02T04:06:22.620Z,99353.81
2023-08-02T04:08:49.187Z,99321.75
2023-08-02T04:11:15.740Z,99299.81
2023-08-02T04:13:42.284Z,99306.19
2023-08-02T04:16:08.868Z,99322.59
2023-08-02T04:18:35.421Z,99330.66
2023-08-02T04:21:02.149Z,99326.72
2023-08-02T04:23:28.698Z,99329.72
2023-08-02T04:25:56.422Z,99327.78
2023-08-02T04:28:24.700Z,99326.06
2023-08-02T04:30:51.877Z,99324.09
2023-08-02T04:33:19.011Z,99319.38
2023-08-02T04:35:45.609Z,99310.19
2023-08-02T04:38:12.094Z,99314.41
2023-08-02T04:40:39.849Z,99304.94
2023-08-02T04:43:06.514Z,99302.66
2023-08-02T04:45:33.161Z,99298.75
2023-08-02T04:47:59.766Z,99294.00
2023-08-02T04:50:26.330Z,99296.63
2023-08-02T04:52:52.861Z,99283.53
2023-08-02T04:55:19.493Z,99270.44
2023-08-02T04:57:46.051Z,99259.31
2023-08-02T05:00:13.022Z,99243.72
2023-08-02T05:02:39.613Z,99250.19
2023-08-02T05:05:06.763Z,99248.63
2023-08-02T05:07:39.854Z,99246.44
2023-08-02T05:10:08.476Z,99239.81
2023-08-02T05:12:38.516Z,99233.44
2023-08-02T05:15:05.527Z,99230.72
2023-08-02T05:17:32.190Z,99222.69
2023-08-02T05:19:58.859Z,99209.66
2023-08-02T05:22:25.692Z,99205.50
2023-08-02T05:24:53.167Z,99201.97
2023-08-02T05:27:20.117Z,99182.53
2023-08-02T05:29:46.725Z,99172.84
2023-08-02T05:32:13.271Z,99171.50
2023-08-02T05:34:39.771Z,99167.44
2023-08-02T05:37:06.492Z,99157.97
2023-08-02T05:39:33.016Z,99155.47
2023-08-02T05:41:59.526Z,99141.56
2023-08-02T05:44:26.005Z,99144.34
2023-08-02T05:46:52.644Z,99134.03
2023-08-02T05:49:19.173Z,99137.13
2023-08-02T05:51:45.681Z,99146.00
2023-08-02T05:54:12.183Z,99137.94
2023-08-02T05:56:38.752Z,99127.03
2023-08-02T05:59:05.307Z,99115.06
2023-08-02T06:01:31.893Z,99105.91
2023-08-02T06:03:58.506Z,99117.56
2023-08-02T06:06:25.221Z,99108.31
2023-08-02T06:08:51.753Z,99102.44
2023-08-02T06:11:18.264Z,99079.66
2023-08-02T06:13:44.829Z,99095.81
2023-08-02T06:16:11.371Z,99094.19
2023-08-02T06:18:37.909Z,99090.81
2023-08-02T06:21:04.522Z,99089.06
2023-08-02T06:23:31.032Z,99096.38
2023-08-02T06:25:57.515Z,99091.03
2023-08-02T06:28:24.040Z,99093.47
2023-08-02T06:30:50.556Z,99095.97
2023-08-02T06:33:17.182Z,99091.03
2023-08-02T06:35:43.737Z,99092.44
2023-08-02T06:38:10.331Z,99094.09
2023-08-02T06:40:36.812Z,99078.84
2023-08-02T06:43:03.375Z,99067.38
2023-08-02T06:45:29.837Z,99053.41
2023-08-02T06:47:56.391Z,99071.75
2023-08-02T06:50:22.929Z,99066.50
2023-08-02T06:52:49.404Z,99061.72
2023-08-02T06:55:17.991Z,99061.59
2023-08-02T06:57:44.979Z,99056.25
2023-08-02T07:00:12.003Z,99053.19
2023-08-02T07:02:38.588Z,99042.47
2023-08-02T07:05:05.782Z,99026.81
2023-08-02T07:07:34.357Z,99009.19
2023-08-02T07:10:00.905Z,99014.44
2023-08-02T07:12:27.440Z,99011.34
2023-08-02T07:14:53.976Z,98997.72
2023-08-02T07:17:20.476Z,99002.72
2023-08-02T07:19:46.996Z,98999.38
2023-08-02T07:22:18.511Z,98989.28
2023-08-02T07:24:45.373Z,98981.66
2023-08-02T07:27:11.893Z,98988.47
2023-08-02T07:29:38.531Z,98971.25
2023-08-02T07:32:05.460Z,98937.50
2023-08-02T07:34:34.291Z,98963.50
2023-08-02T07:37:00.880Z,98942.16
2023-08-02T07:39:27.396Z,98962.16
2023-08-02T07:41:53.887Z,98949.06
2023-08-02T07:44:20.367Z,98950.53
2023-08-02T07:46:46.943Z,98947.19
2023-08-02T07:49:13.482Z,98933.81
2023-08-02T07:51:40.475Z,98922.56
2023-08-02T07:54:07.362Z,98918.34
2023-08-02T07:56:33.933Z,98913.28
2023-08-02T07:59:02.588Z,98899.06
2023-08-02T08:01:30.928Z,98888.44
2023-08-02T08:03:57.534Z,98901.84
2023-08-02T08:06:26.940Z,98886.19
2023-08-02T08:08:53.469Z,98881.41
2023-08-02T08:11:21.684Z,98879.34
2023-08-02T08:13:52.153Z,98875.63
2023-08-02T08:16:18.739Z,98872.72
2023-08-02T08:18:45.246Z,98869.34
2023-08-02T08:21:11.888Z,98857.22
2023-08-02T08:23:38.504Z,98858.25
2023-08-02T08:26:05.538Z,98844.03
2023-08-02T08:28:32.124Z,98824.72
2023-08-02T08:31:05.592Z,98844.09
2023-08-02T08:33:32.592Z,98852.03
2023-08-02T08:35:59.342Z,98852.97
2023-08-02T08:38:26.051Z,98848.28
2023-08-02T08:40:53.908Z,98839.81
2023-08-02T08:43:21.475Z,98835.88
2023-08-02T08:45:48.527Z,98838.16
2023-08-02T08:48:15.345Z,98833.22
2023-08-02T08:50:46.109Z,98838.97
2023-08-02T08:53:18.355Z,98840.06
2023-08-02T08:55:49.821Z,98843.97
2023-08-02T08:58:17.912Z,98844.63
2023-08-02T09:00:45.727Z,98854.72
2023-08-02T09:03:16.602Z,98846.56
2023-08-02T09:05:43.732Z,98841.81
2023-08-02T09:08:10.326Z,98832.34
2023-08-02T09:10:37.679Z,98832.19
2023-08-02T09:13:04.224Z,98817.78
2023-08-02T09:15:30.995Z,98813.84
2023-08-02T09:17:57.778Z,98812.06
2023-08-02T09:20:28.627Z,98795.22
2023-08-02T09:22:55.201Z,98795.78
2023-08-02T09:25:27.602Z,98774.59
2023-08-02T09:27:56.187Z,98758.91
2023-08-02T09:30:31.356Z,98751.03
2023-08-02T09:33:01.467Z,98747.13
2023-08-02T09:35:28.535Z,98755.34
2023-08-02T09:37:55.139Z,98769.78
2023-08-02T09:40:39.169Z,98767.50
2023-08-02T09:43:13.156Z,98765.22
2023-08-02T09:45:39.702Z,98754.44
2023-08-02T09:48:06.341Z,98740.81
2023-08-02T09:50:34.163Z,98739.38
2023-08-02T09:53:18.918Z,98740.38
2023-08-02T09:55:47.743Z,98740.38
2023-08-02T09:58:15.984Z,98748.41
2023-08-02T10:00:42.770Z,98745.94
2023-08-02T10:03:23.910Z,98744.16
2023-08-02T10:05:54.507Z,98748.91
2023-08-02T10:08:21.066Z,98735.97
2023-08-02T10:10:47.833Z,98726.81
2023-08-02T10:13:26.383Z,98726.38
2023-08-02T10:15:54.090Z,98699.47
2023-08-02T10:18:21.409Z,98705.41
2023-08-02T10:20:49.501Z,98711.66
2023-08-02T10:23:16.067Z,98708.53
2023-08-02T10:25:43.657Z,98705.41
2023-08-02T10:28:12.067Z,98707.41
2023-08-02T10:30:40.634Z,98708.09
2023-08-02T10:33:16.117Z,98705.31
2023-08-02T10:35:56.681Z,98687.75
2023-08-02T10:38:47.732Z,98684.66
2023-08-02T10:41:15.267Z,98672.66
2023-08-02T10:44:13.298Z,98656.78
2023-08-02T10:46:39.964Z,98650.34
2023-08-02T10:49:12.261Z,98638.03
2023-08-02T10:51:39.328Z,98623.59
2023-08-02T10:54:24.555Z,98630.44
2023-08-02T10:56:57.811Z,98630.59
2023-08-02T10:59:24.342Z,98630.84
2023-08-02T11:01:58.452Z,98636.34
2023-08-02T11:04:25.833Z,98635.59
2023-08-02T11:06:52.821Z,98630.16
2023-08-02T11:09:30.321Z,98629.34
2023-08-02T11:11:56.907Z,98629.78
2023-08-02T11:14:28.106Z,98623.66
2023-08-02T11:16:55.503Z,98631.00
2023-08-02T11:19:23.345Z,98619.25
2023-08-02T11:21:55.236Z,98620.81
2023-08-02T11:24:25.641Z,98609.63
2023-08-02T11:26:56.838Z,98605.22
2023-08-02T11:29:23.747Z,98605.78
2023-08-02T11:31:52.152Z,98592.94
2023-08-02T11:34:22.755Z,98580.09
2023-08-02T11:36:50.649Z,98568.91
2023-08-02T11:39:22.061Z,98564.91
2023-08-02T11:42:05.088Z,98551.47
2023-08-02T11:44:31.789Z,98553.94
2023-08-02T11:46:58.581Z,98553.44
2023-08-02T11:49:25.429Z,98551.59
2023-08-02T11:51:51.992Z,98549.97
2023-08-02T11:54:18.853Z,98540.41
2023-08-02T11:56:46.124Z,98542.06
2023-08-02T11:59:13.329Z,98543.72
2023-08-02T12:01:43.821Z,98552.34
2023-08-02T12:04:11.060Z,98549.44
2023-08-02T12:06:54.349Z,98536.00
2023-08-02T12:09:40.141Z,98527.31
2023-08-02T12:12:06.853Z,98509.06
2023-08-02T12:14:35.486Z,98501.09
2023-08-02T12:17:04.671Z,98502.22
2023-08-02T12:19:40.001Z,98492.47
2023-08-02T12:22:06.738Z,98466.34
2023-08-02T12:24:33.366Z,98481.84
2023-08-02T12:27:15.819Z,98481.81
2023-08-02T12:29:43.836Z,98484.69
2023-08-02T12:32:12.433Z,98512.50
2023-08-02T12:34:39.019Z,98478.09
2023-08-02T12:37:05.922Z,98468.03
2023-08-02T12:39:32.477Z,98466.38
2023-08-02T12:41:59.562Z,98458.41
2023-08-02T12:44:26.583Z,98458.03
2023-08-02T12:46:53.186Z,98469.31
2023-08-02T12:49:19.731Z,98459.50
2023-08-02T12:51:46.277Z,98464.81
2023-08-02T12:54:12.808Z,98484.47
2023-08-02T12:56:39.416Z,98470.09
2023-08-02T12:59:05.963Z,98469.38
2023-08-02T13:01:34.653Z,98450.56
2023-08-02T13:04:02.655Z,98454.19
2023-08-02T13:06:29.299Z,98454.63
2023-08-02T13:08:55.934Z,98435.28
2023-08-02T13:11:22.577Z,98430.78
2023-08-02T13:13:49.133Z,98416.66
2023-08-02T13:16:15.796Z,98407.84
2023-08-02T13:18:42.363Z,98413.50
2023-08-02T13:21:09.321Z,98414.00
2023-08-02T13:23:35.849Z,98406.22
2023-08-02T13:26:04.365Z,98410.16
2023-08-02T13:28:30.976Z,98410.97
2023-08-02T13:31:00.054Z,98418.03
2023-08-02T13:33:27.533Z,98393.00
2023-08-02T13:35:54.618Z,98381.44
2023-08-02T13:38:21.469Z,98392.66
2023-08-02T13:40:47.988Z,98403.59
2023-08-02T13:43:14.575Z,98378.31
2023-08-02T13:45:42.182Z,98382.56
2023-08-02T13:48:09.094Z,98382.91
2023-08-02T13:50:39.175Z,98389.28
2023-08-02T13:53:06.734Z,98386.72
2023-08-02T13:55:33.817Z,98372.34
2023-08-02T13:58:00.485Z,98382.75
2023-08-02T14:00:27.323Z,98392.88
2023-08-02T14:02:53.984Z,98379.28
2023-08-02T14:05:20.676Z,98372.28
2023-08-02T14:07:47.445Z,98395.34
2023-08-02T14:10:14.274Z,98371.63
2023-08-02T14:12:41.381Z,98374.78
2023-08-02T14:15:09.848Z,98368.72
2023-08-02T14:17:36.551Z,98380.94
2023-08-02T14:20:05.177Z,98389.41
2023-08-02T14:22:35.018Z,98397.28
2023-08-02T14:25:02.005Z,98371.34
2023-08-02T14:27:28.576Z,98345.44
2023-08-02T14:29:55.093Z,98341.63
2023-08-02T14:32:21.612Z,98334.41
2023-08-02T14:34:48.156Z,98351.22
2023-08-02T14:37:14.869Z,98326.81
2023-08-02T14:39:41.368Z,98331.53
2023-08-02T14:42:07.962Z,98341.72
2023-08-02T14:44:34.503Z,98345.09
2023-08-02T14:47:01.052Z,98359.47
2023-08-02T14:49:27.657Z,98345.34
2023-08-02T14:51:55.480Z,98347.56
2023-08-02T14:54:22.033Z,98365.47
2023-08-02T14:56:48.661Z,98382.75
2023-08-02T14:59:15.155Z,98367.31
2023-08-02T15:01:41.659Z,98350.88
2023-08-02T15:04:08.852Z,98348.41
2023-08-02T15:06:35.444Z,98345.97
2023-08-02T15:09:02.333Z,98333.25
2023-08-02T15:11:28.898Z,98324.88
2023-08-02T15:13:55.455Z,98305.13
2023-08-02T15:16:21.997Z,98312.88
2023-08-02T15:18:48.604Z,98298.72
2023-08-02T15:21:15.151Z,98317.38
2023-08-02T15:23:41.637Z,98319.78
2023-08-02T15:26:08.918Z,98326.63
2023-08-02T15:28:35.451Z,98314.75
2023-08-02T15:31:02.042Z,98311.53
2023-08-02T15:33:28.683Z,98315.66
2023-08-02T15:35:55.283Z,98315.69
2023-08-02T15:38:21.763Z,98328.69
2023-08-02T15:40:48.347Z,98317.38
2023-08-02T15:43:14.888Z,98306.81
2023-08-02T15:45:41.462Z,98308.44
2023-08-02T15:48:07.959Z,98293.03
2023-08-02T15:50:36.363Z,98300.28
2023-08-02T15:53:03.910Z,98318.13
2023-08-02T15:55:30.647Z,98307.22
2023-08-02T15:57:57.272Z,98307.22
2023-08-02T16:00:23.879Z,98331.97
2023-08-02T16:02:50.450Z,98353.84
2023-08-02T16:05:20.447Z,98338.44
2023-08-02T16:07:46.999Z,98322.19
2023-08-02T16:10:13.773Z,98335.91
2023-08-02T16:12:40.285Z,98327.75
2023-08-02T16:15:07.255Z,98319.75
2023-08-02T16:17:33.863Z,98309.06
2023-08-02T16:20:00.493Z,98308.28
2023-08-02T16:22:27.136Z,98316.66
2023-08-02T16:24:53.642Z,98312.53
2023-08-02T16:27:20.226Z,98312.16
2023-08-02T16:29:46.708Z,98317.84
2023-08-02T16:32:13.259Z,98320.38
2023-08-02T16:34:39.739Z,98304.56
2023-08-02T16:37:06.412Z,98308.69
2023-08-02T16:39:32.884Z,98310.78
2023-08-02T16:41:59.390Z,98309.22
2023-08-02T16:44:25.886Z,98309.22
2023-08-02T16:46:52.400Z,98310.06
2023-08-02T16:49:18.960Z,98312.88
2023-08-02T16:51:45.894Z,98324.59
2023-08-02T16:54:12.623Z,98315.25
2023-08-02T16:56:39.134Z,98319.59
2023-08-02T16:59:05.668Z,98339.38
2023-08-02T17:01:32.306Z,98330.78
2023-08-02T17:03:58.910Z,98343.56
2023-08-02T17:06:27.288Z,98341.38
2023-08-02T17:08:54.003Z,98363.09
2023-08-02T17:11:20.544Z,98366.06
2023-08-02T17:13:47.079Z,98374.00
2023-08-02T17:16:13.608Z,98385.22
2023-08-02T17:18:40.184Z,98392.53
2023-08-02T17:21:06.690Z,98404.13
2023-08-02T17:23:33.230Z,98443.91
2023-08-02T17:25:59.804Z,98449.72
2023-08-02T17:28:26.463Z,98444.31
2023-08-02T17:30:53.109Z,98449.75
2023-08-02T17:33:19.705Z,98476.66
2023-08-02T17:35:46.244Z,98477.28
2023-08-02T17:38:12.811Z,98456.84
2023-08-02T17:40:39.412Z,98457.50
2023-08-02T17:43:06.189Z,98462.28
2023-08-02T17:45:37.844Z,98487.25
2023-08-02T17:48:11.084Z,98481.63
2023-08-02T17:50:37.612Z,98463.81
2023-08-02T17:53:04.170Z,98474.97
2023-08-02T17:55:30.776Z,98473.38
2023-08-02T17:57:57.382Z,98482.84
2023-08-02T18:00:26.674Z,98490.47
2023-08-02T18:02:56.452Z,98493.28
2023-08-02T18:05:23.160Z,98502.19
2023-08-02T18:07:52.649Z,98497.56
2023-08-02T18:10:19.259Z,98502.94
2023-08-02T18:12:47.513Z,98506.31
2023-08-02T18:15:14.122Z,98520.13
2023-08-02T18:17:40.716Z,98508.94
2023-08-02T18:20:08.204Z,98516.59
2023-08-02T18:22:34.701Z,98528.09
2023-08-02T18:25:01.249Z,98536.66
2023-08-02T18:27:27.726Z,98539.38
2023-08-02T18:29:54.332Z,98543.72
2023-08-02T18:32:21.611Z,98544.06
2023-08-02T18:34:48.169Z,98552.69
2023-08-02T18:37:14.842Z,98535.25
2023-08-02T18:39:41.384Z,98556.91
2023-08-02T18:42:07.899Z,98562.34
2023-08-02T18:44:34.411Z,98555.25
2023-08-02T18:47:01.012Z,98572.84
2023-08-02T18:49:27.504Z,98567.44
2023-08-02T18:51:54.813Z,98577.75
2023-08-02T18:54:21.371Z,98585.97
2023-08-02T18:56:47.894Z,98587.53
2023-08-02T18:59:14.517Z,98590.13
2023-08-02T19:01:44.523Z,98588.13
2023-08-02T19:04:11.486Z,98590.72
2023-08-02T19:06:39.408Z,98599.94
2023-08-02T19:09:08.579Z,98600.91
2023-08-02T19:11:35.840Z,98587.19
2023-08-02T19:14:02.594Z,98605.69
2023-08-02T19:16:30.696Z,98615.75
2023-08-02T19:18:59.859Z,98616.91
2023-08-02T19:21:26.556Z,98632.81
2023-08-02T19:23:53.193Z,98617.38
2023-08-02T19:26:24.336Z,98631.50
2023-08-02T19:28:52.343Z,98648.25
2023-08-02T19:31:21.858Z,98640.44
2023-08-02T19:33:48.484Z,98649.56
2023-08-02T19:36:20.230Z,98648.28
2023-08-02T19:38:47.205Z,98665.56
2023-08-02T19:41:26.575Z,98658.88
2023-08-02T19:43:53.137Z,98662.06
2023-08-02T19:46:21.494Z,98656.69
2023-08-02T19:48:48.112Z,98676.53
2023-08-02T19:51:14.799Z,98671.88
2023-08-02T19:53:45.898Z,98678.66
2023-08-02T19:56:23.637Z,98671.63
2023-08-02T19:58:51.418Z,98675.16
2023-08-02T20:01:18.035Z,98664.84
2023-08-02T20:03:44.775Z,98676.75
2023-08-02T20:06:11.995Z,98696.78
2023-08-02T20:08:38.617Z,98694.44
2023-08-02T20:11:10.977Z,98726.47
2023-08-02T20:13:42.438Z,98740.91
2023-08-02T20:16:21.479Z,98728.59
2023-08-02T20:18:49.745Z,98708.56
2023-08-02T20:21:21.958Z,98727.59
2023-08-02T20:23:59.357Z,98723.41
2023-08-02T20:26:27.542Z,98723.09
2023-08-02T20:28:55.972Z,98717.22
2023-08-02T20:31:24.293Z,98736.34
2023-08-02T20:33:53.051Z,98735.53
2023-08-02T20:36:21.666Z,98722.81
2023-08-02T20:38:50.332Z,98741.94
2023-08-02T20:41:18.603Z,98731.44
2023-08-02T20:43:50.437Z,98722.69
2023-08-02T20:46:28.792Z,98731.91
2023-08-02T20:48:58.433Z,98737.84
2023-08-02T20:51:28.354Z,98736.22
2023-08-02T20:53:57.393Z,98731.16
2023-08-02T20:56:25.117Z,98743.19
2023-08-02T20:58:51.738Z,98739.06
2023-08-02T21:01:18.353Z,98753.44
2023-08-02T21:03:44.961Z,98750.69
2023-08-02T21:06:12.234Z,98731.22
2023-08-02T21:08:42.914Z,98741.59
2023-08-02T21:11:10.703Z,98752.47
2023-08-02T21:13:38.208Z,98746.06
2023-08-02T21:16:05.102Z,98756.44
2023-08-02T21:18:33.176Z,98752.63
2023-08-02T21:21:00.281Z,98752.47
2023-08-02T21:23:27.605Z,98739.50
2023-08-02T21:25:56.626Z,98731.28
2023-08-02T21:28:25.515Z,98743.78
2023-08-02T21:30:56.992Z,98768.91
2023-08-02T21:33:24.619Z,98753.78
2023-08-02T21:35:57.080Z,98754.00
2023-08-02T21:38:29.768Z,98760.34
2023-08-02T21:40:59.860Z,98757.56
2023-08-02T21:43:28.723Z,98758.69
2023-08-02T21:46:01.482Z,98758.91
2023-08-02T21:48:28.915Z,98747.44
2023-08-02T21:50:55.841Z,98742.97
2023-08-02T21:53:24.944Z,98758.63
2023-08-02T21:55:56.195Z,98764.41
2023-08-02T21:58:30.600Z,98778.75
2023-08-02T22:00:57.944Z,98779.28
2023-08-02T22:03:25.504Z,98767.75
2023-08-02T22:06:01.990Z,98790.00
2023-08-02T22:08:40.005Z,98777.63
2023-08-02T22:11:15.028Z,98786.53
2023-08-02T22:13:42.394Z,98784.06
2023-08-02T22:16:11.534Z,98774.50
2023-08-02T22:18:38.440Z,98804.84
2023-08-02T22:21:06.211Z,98774.88
2023-08-02T22:23:36.104Z,98774.88
2023-08-02T22:26:04.839Z,98781.97
2023-08-02T22:28:32.048Z,98807.38
2023-08-02T22:30:58.709Z,98801.75
2023-08-02T22:33:25.362Z,98785.97
2023-08-02T22:35:51.900Z,98787.13
2023-08-02T22:38:18.777Z,98775.78
2023-08-02T22:40:46.515Z,98755.56
2023-08-02T22:43:13.211Z,98733.78
2023-08-02T22:45:39.951Z,98735.97
2023-08-02T22:48:28.589Z,98739.59
2023-08-02T22:50:56.036Z,98777.78
2023-08-02T22:53:23.453Z,98769.91
2023-08-02T22:55:50.484Z,98769.91
2023-08-02T22:58:17.146Z,98774.38
2023-08-02T23:00:43.913Z,98784.09
2023-08-02T23:03:34.900Z,98784.59
2023-08-02T23:06:01.634Z,98754.34
2023-08-02T23:08:34.503Z,98779.19
2023-08-02T23:11:01.072Z,98773.75
2023-08-02T23:13:27.638Z,98785.78
2023-08-02T23:15:54.172Z,98787.44
2023-08-02T23:18:25.573Z,98781.03
2023-08-02T23:20:52.405Z,98785.81
2023-08-02T23:23:29.647Z,98773.47
2023-08-02T23:26:11.148Z,98776.88
2023-08-02T23:28:39.479Z,98793.00
2023-08-02T23:31:13.203Z,98778.72
2023-08-02T23:33:39.912Z,98774.44
2023-08-02T23:36:06.432Z,98774.75
2023-08-02T23:38:32.968Z,98769.31
2023-08-02T23:40:59.523Z,98763.06
2023-08-02T23:43:26.064Z,98781.00
2023-08-02T23:45:52.599Z,98790.53
2023-08-02T23:48:19.066Z,98794.66
2023-08-02T23:50:45.579Z,98807.94
2023-08-02T23:53:12.089Z,98813.06
2023-08-02T23:55:38.578Z,98808.00
2023-08-02T23:58:05.169Z,98818.16
